Time;durP1;ratioP1;P1;durP2;ratioP2;P2;SDS_P1;SDS_P2;PMS_P1;PMS_P2;Temp;Humidity;BMP_temperature;BMP_pressure;BME280_temperature;BME280_humidity;BME280_pressure;Samples;Min_cycle;Max_cycle;Signal;HPM_P1;HPM_P2
2021/10/20 00:01:04;;;;;;;56.30;33.33;;;8.00;99.90;;;;;;5035626;28;20199;-93
2021/10/20 00:03:30;;;;;;;55.80;33.10;;;7.90;99.90;;;;;;5037316;28;20208;-93
2021/10/20 00:05:57;;;;;;;50.17;33.00;;;7.90;99.90;;;;;;5035701;28;20199;-94
2021/10/20 00:08:23;;;;;;;48.60;32.10;;;7.90;99.90;;;;;;5066249;28;20186;-92
2021/10/20 00:10:50;;;;;;;49.90;30.52;;;7.80;99.90;;;;;;5042255;28;20254;-94
2021/10/20 00:13:16;;;;;;;58.97;33.60;;;7.80;99.90;;;;;;5036721;28;20257;-87
2021/10/20 00:15:42;;;;;;;48.63;32.22;;;7.80;99.90;;;;;;5034750;28;20203;-86
2021/10/20 00:18:08;;;;;;;53.90;31.00;;;7.70;99.90;;;;;;5035463;28;20229;-87
2021/10/20 00:20:35;;;;;;;47.42;31.75;;;7.70;99.90;;;;;;5035133;28;20437;-87
2021/10/20 00:23:02;;;;;;;50.72;30.65;;;7.80;99.90;;;;;;5035096;28;20209;-86
2021/10/20 00:25:28;;;;;;;49.45;32.10;;;7.70;99.90;;;;;;5034454;28;20206;-86
2021/10/20 00:27:55;;;;;;;60.30;35.70;;;7.70;99.90;;;;;;5034787;28;20649;-87
2021/10/20 00:30:21;;;;;;;57.67;35.10;;;7.70;99.90;;;;;;5034315;28;20199;-86
2021/10/20 00:32:47;;;;;;;61.55;35.28;;;7.70;99.90;;;;;;5034902;28;20183;-89
2021/10/20 00:35:14;;;;;;;61.72;34.88;;;7.70;99.90;;;;;;5034673;28;20264;-86
2021/10/20 00:37:40;;;;;;;57.72;33.72;;;7.70;99.90;;;;;;5034682;28;20702;-94
2021/10/20 00:40:08;;;;;;;59.90;36.00;;;7.80;99.90;;;;;;5034780;28;20190;-93
2021/10/20 00:42:34;;;;;;;52.78;33.33;;;7.80;99.90;;;;;;5034888;28;20459;-93
2021/10/20 00:45:01;;;;;;;57.90;35.47;;;7.80;99.90;;;;;;5035271;28;20202;-93
2021/10/20 00:47:29;;;;;;;52.67;32.35;;;7.90;99.90;;;;;;5034403;28;20193;-88
2021/10/20 00:49:56;;;;;;;62.17;33.97;;;7.80;99.90;;;;;;5035456;28;20190;-87
2021/10/20 00:52:24;;;;;;;53.05;34.28;;;7.80;99.90;;;;;;5034329;28;20691;-93
2021/10/20 00:54:52;;;;;;;53.92;34.33;;;7.80;99.90;;;;;;5034182;28;20205;-93
2021/10/20 00:57:22;;;;;;;61.42;35.65;;;7.90;99.90;;;;;;5036385;28;20221;-87
2021/10/20 00:59:49;;;;;;;61.25;34.88;;;7.80;99.90;;;;;;5036544;28;20205;-94
2021/10/20 01:02:15;;;;;;;62.42;34.25;;;7.90;99.90;;;;;;5037273;28;20584;-93
2021/10/20 01:04:42;;;;;;;50.73;31.47;;;7.90;99.90;;;;;;5039694;28;20195;-87
2021/10/20 01:07:08;;;;;;;58.95;34.70;;;7.80;99.90;;;;;;5043382;28;20553;-93
2021/10/20 01:09:36;;;;;;;50.77;29.43;;;7.80;99.90;;;;;;5034386;28;20201;-87
2021/10/20 01:12:02;;;;;;;50.50;31.67;;;7.80;99.90;;;;;;5045593;28;20419;-86
2021/10/20 01:14:29;;;;;;;59.13;34.72;;;7.80;99.90;;;;;;5047522;28;20712;-93
2021/10/20 01:16:56;;;;;;;51.50;31.60;;;7.80;99.90;;;;;;5053281;28;20268;-87
2021/10/20 01:19:22;;;;;;;65.40;35.35;;;7.70;99.90;;;;;;5055426;28;20209;-87
2021/10/20 01:21:48;;;;;;;68.90;39.03;;;7.70;99.90;;;;;;5051597;28;20182;-91
2021/10/20 01:24:16;;;;;;;60.20;36.05;;;7.70;99.90;;;;;;5046447;28;20187;-87
2021/10/20 01:26:46;;;;;;;52.20;32.83;;;7.70;99.90;;;;;;5036975;28;20186;-86
2021/10/20 01:29:12;;;;;;;57.45;31.88;;;7.80;99.90;;;;;;5035253;28;20540;-93
2021/10/20 01:31:37;;;;;;;57.07;32.73;;;7.70;99.90;;;;;;5034249;28;20181;-94
2021/10/20 01:34:06;;;;;;;59.93;35.17;;;7.70;99.90;;;;;;5034221;28;20198;-88
2021/10/20 01:36:32;;;;;;;56.30;32.85;;;7.70;99.90;;;;;;5033852;28;20178;-96
2021/10/20 01:38:59;;;;;;;61.10;35.40;;;7.80;99.90;;;;;;5035663;28;20232;-87
2021/10/20 01:41:26;;;;;;;60.75;35.45;;;7.80;99.90;;;;;;5033692;28;20221;-94
2021/10/20 01:43:53;;;;;;;61.15;36.30;;;7.80;99.90;;;;;;5033518;28;20194;-87
2021/10/20 01:46:21;;;;;;;64.07;35.58;;;7.80;99.90;;;;;;5033437;28;20199;-94
2021/10/20 01:48:47;;;;;;;61.78;36.72;;;7.80;99.90;;;;;;5035341;28;20616;-94
2021/10/20 01:51:15;;;;;;;62.80;35.47;;;7.80;99.90;;;;;;5033694;28;20655;-94
2021/10/20 01:53:43;;;;;;;54.38;33.25;;;7.80;99.90;;;;;;5035183;28;20179;-87
2021/10/20 01:56:11;;;;;;;60.88;33.60;;;7.80;99.90;;;;;;5033451;28;20224;-93
2021/10/20 01:58:37;;;;;;;56.33;33.47;;;7.80;99.90;;;;;;5037048;28;20225;-87
2021/10/20 02:01:09;;;;;;;59.25;33.42;;;7.80;99.90;;;;;;5064388;28;20185;-87
2021/10/20 02:03:38;;;;;;;51.83;33.08;;;7.80;99.90;;;;;;5050167;28;20192;-93
2021/10/20 02:06:07;;;;;;;52.42;33.53;;;7.70;99.90;;;;;;5033534;28;20202;-89
2021/10/20 02:08:35;;;;;;;65.28;35.67;;;7.70;99.90;;;;;;5032921;28;20189;-86
2021/10/20 02:11:01;;;;;;;62.20;33.92;;;7.70;99.90;;;;;;5032912;28;20675;-94
2021/10/20 02:13:27;;;;;;;49.23;32.00;;;7.60;99.90;;;;;;5032910;28;20280;-87
2021/10/20 02:15:53;;;;;;;55.25;33.08;;;7.60;99.90;;;;;;5032702;28;20406;-87
2021/10/20 02:18:19;;;;;;;55.23;34.13;;;7.60;99.90;;;;;;5032998;28;20218;-87
2021/10/20 02:20:45;;;;;;;58.53;33.13;;;7.50;99.90;;;;;;5033248;28;20956;-93
2021/10/20 02:23:13;;;;;;;50.22;31.10;;;7.50;99.90;;;;;;5033243;28;20182;-86
2021/10/20 02:25:39;;;;;;;52.38;32.95;;;7.40;99.90;;;;;;5032473;28;20213;-93
2021/10/20 02:28:05;;;;;;;53.97;31.53;;;7.40;99.90;;;;;;5032870;28;20580;-93
2021/10/20 02:30:31;;;;;;;52.55;33.00;;;7.30;99.90;;;;;;5032788;28;20977;-94
2021/10/20 02:32:57;;;;;;;62.80;34.93;;;7.30;99.90;;;;;;5033336;28;20277;-86
2021/10/20 02:35:23;;;;;;;57.72;34.15;;;7.20;99.90;;;;;;5036902;28;20273;-89
2021/10/20 02:37:50;;;;;;;60.50;33.15;;;7.20;99.90;;;;;;5036454;28;20614;-86
2021/10/20 02:40:16;;;;;;;51.83;33.63;;;7.20;99.90;;;;;;5063044;28;20183;-87
2021/10/20 02:42:43;;;;;;;59.38;33.95;;;7.20;99.90;;;;;;5041149;28;20194;-86
2021/10/20 02:45:15;;;;;;;60.53;35.60;;;7.20;99.90;;;;;;5040169;28;20240;-93
2021/10/20 02:47:41;;;;;;;57.67;32.83;;;7.10;99.90;;;;;;5037769;28;20190;-94
2021/10/20 02:50:08;;;;;;;59.33;34.65;;;7.10;99.90;;;;;;5037696;28;20206;-86
2021/10/20 02:52:35;;;;;;;53.45;33.03;;;7.10;99.90;;;;;;5038020;28;20186;-86
2021/10/20 02:55:02;;;;;;;57.85;35.63;;;7.10;99.90;;;;;;5053269;28;20698;-94
2021/10/20 02:57:28;;;;;;;63.85;35.05;;;7.10;99.90;;;;;;5037166;28;20259;-93
2021/10/20 02:59:55;;;;;;;67.80;37.28;;;7.00;99.90;;;;;;5038538;28;20190;-93
2021/10/20 03:02:22;;;;;;;69.60;36.40;;;7.00;99.90;;;;;;5037334;28;20186;-86
2021/10/20 03:04:49;;;;;;;64.07;36.70;;;7.00;99.90;;;;;;5036536;28;20621;-87
2021/10/20 03:07:16;;;;;;;63.78;35.85;;;7.00;99.90;;;;;;5036368;28;20194;-87
2021/10/20 03:09:41;;;;;;;67.72;37.80;;;7.00;99.90;;;;;;5036376;28;20286;-95
2021/10/20 03:12:08;;;;;;;68.37;39.37;;;7.00;99.90;;;;;;5036442;28;20214;-92
2021/10/20 03:14:34;;;;;;;64.55;39.03;;;6.90;99.90;;;;;;5036073;28;20633;-94
2021/10/20 03:16:59;;;;;;;72.03;39.83;;;6.90;99.90;;;;;;5055081;28;20221;-94
2021/10/20 03:19:36;;;;;;;64.93;39.63;;;6.90;99.90;;;;;;5036536;28;20435;-87
2021/10/20 03:22:07;;;;;;;68.90;38.72;;;6.90;99.90;;;;;;5037454;28;20624;-93
2021/10/20 03:24:34;;;;;;;68.63;39.25;;;6.90;99.90;;;;;;5036352;28;20540;-87
2021/10/20 03:27:02;;;;;;;65.03;38.20;;;6.90;99.90;;;;;;5037175;28;20246;-87
2021/10/20 03:29:28;;;;;;;62.85;38.75;;;6.90;99.90;;;;;;5036595;28;20713;-87
2021/10/20 03:31:54;;;;;;;72.05;39.45;;;6.90;99.90;;;;;;5052595;28;20203;-86
2021/10/20 03:34:20;;;;;;;61.87;35.57;;;6.90;99.90;;;;;;5036945;28;20261;-94
2021/10/20 03:36:47;;;;;;;62.22;37.00;;;6.90;99.90;;;;;;5035785;28;20221;-87
2021/10/20 03:39:13;;;;;;;61.28;37.65;;;6.90;99.90;;;;;;5038151;28;20630;-87
2021/10/20 03:41:39;;;;;;;65.60;37.92;;;7.00;99.90;;;;;;5052914;28;20206;-93
2021/10/20 03:44:05;;;;;;;63.57;39.17;;;7.00;99.90;;;;;;5040076;28;20259;-87
2021/10/20 03:46:31;;;;;;;64.28;36.17;;;7.10;99.90;;;;;;5058718;28;20217;-93
2021/10/20 03:49:00;;;;;;;65.23;36.80;;;7.20;99.90;;;;;;5036588;28;20174;-94
2021/10/20 03:51:25;;;;;;;65.03;36.58;;;7.20;99.90;;;;;;5036225;28;20179;-87
2021/10/20 03:53:51;;;;;;;71.50;38.87;;;7.30;99.90;;;;;;5036570;28;20178;-94
2021/10/20 03:56:17;;;;;;;68.60;38.17;;;7.30;99.90;;;;;;5052480;28;20198;-86
2021/10/20 03:58:44;;;;;;;53.88;34.40;;;7.30;99.90;;;;;;5035514;28;20698;-88
2021/10/20 04:01:10;;;;;;;59.67;35.97;;;7.40;99.90;;;;;;5035321;28;20209;-87
2021/10/20 04:03:38;;;;;;;60.75;37.20;;;7.40;99.90;;;;;;5035676;28;20178;-87
2021/10/20 04:06:03;;;;;;;68.28;37.53;;;7.40;99.90;;;;;;5051904;28;20286;-93
2021/10/20 04:08:30;;;;;;;64.77;39.07;;;7.40;99.90;;;;;;5035481;28;20275;-94
2021/10/20 04:10:55;;;;;;;63.30;36.53;;;7.40;99.90;;;;;;5036448;28;20190;-94
2021/10/20 04:13:22;;;;;;;57.28;35.47;;;7.40;99.90;;;;;;5035093;28;20234;-93
2021/10/20 04:15:48;;;;;;;62.00;35.00;;;7.30;99.90;;;;;;5034971;28;20218;-94
2021/10/20 04:18:21;;;;;;;58.80;38.35;;;7.30;99.90;;;;;;5035363;28;20288;-87
2021/10/20 04:20:47;;;;;;;57.88;37.78;;;7.30;99.90;;;;;;5053528;28;20229;-94
2021/10/20 04:23:13;;;;;;;62.93;37.30;;;7.10;99.90;;;;;;5054487;28;20228;-95
2021/10/20 04:25:39;;;;;;;65.10;38.93;;;7.00;99.90;;;;;;5055232;28;20198;-94
2021/10/20 04:28:06;;;;;;;59.65;37.97;;;6.90;99.90;;;;;;5054400;28;20190;-87
2021/10/20 04:30:32;;;;;;;67.18;39.45;;;6.90;99.90;;;;;;5055370;28;20193;-95
2021/10/20 04:32:58;;;;;;;60.47;37.33;;;6.80;99.90;;;;;;5069598;28;20234;-87
2021/10/20 04:35:26;;;;;;;65.60;38.93;;;6.70;99.90;;;;;;5054645;28;20201;-87
2021/10/20 04:37:52;;;;;;;61.13;37.83;;;6.70;99.90;;;;;;5054393;28;20478;-95
2021/10/20 04:40:19;;;;;;;62.40;36.13;;;6.60;99.90;;;;;;5055556;28;20194;-93
2021/10/20 04:42:44;;;;;;;59.67;37.13;;;6.60;99.90;;;;;;5053534;28;20695;-95
2021/10/20 04:45:11;;;;;;;60.23;37.00;;;6.50;99.90;;;;;;5054440;28;20232;-87
2021/10/20 04:47:37;;;;;;;67.05;38.83;;;6.50;99.90;;;;;;5054196;28;20646;-92
2021/10/20 04:50:07;;;;;;;66.10;39.53;;;6.50;99.90;;;;;;5054171;28;20289;-87
2021/10/20 04:52:35;;;;;;;53.60;35.33;;;6.50;99.90;;;;;;5054249;28;20182;-87
2021/10/20 04:55:01;;;;;;;58.80;36.92;;;6.50;99.90;;;;;;5052832;28;20628;-94
2021/10/20 04:57:28;;;;;;;60.30;36.10;;;6.50;99.90;;;;;;5054064;28;20255;-95
2021/10/20 04:59:54;;;;;;;55.38;36.53;;;6.50;99.90;;;;;;5053251;28;20205;-94
2021/10/20 05:02:20;;;;;;;57.70;37.10;;;6.60;99.90;;;;;;5053980;28;20247;-94
2021/10/20 05:04:46;;;;;;;56.00;35.55;;;6.60;99.90;;;;;;5053568;28;20221;-94
2021/10/20 05:07:11;;;;;;;57.73;35.97;;;6.70;99.90;;;;;;5053898;28;20190;-94
2021/10/20 05:09:38;;;;;;;57.63;34.55;;;6.80;99.90;;;;;;5053559;28;20201;-87
2021/10/20 05:12:06;;;;;;;56.72;35.55;;;6.90;99.90;;;;;;5053467;28;20665;-87
2021/10/20 05:14:31;;;;;;;57.20;36.53;;;7.00;99.90;;;;;;5052787;28;20240;-94
2021/10/20 05:16:59;;;;;;;67.50;39.00;;;7.00;99.90;;;;;;5055761;28;20208;-87
2021/10/20 05:19:25;;;;;;;54.20;35.58;;;7.00;99.90;;;;;;5055029;28;20424;-93
2021/10/20 05:21:51;;;;;;;58.40;37.53;;;7.00;99.90;;;;;;5061435;28;20174;-93
2021/10/20 05:24:18;;;;;;;61.00;36.20;;;6.90;99.90;;;;;;5052627;28;20239;-86
2021/10/20 05:26:44;;;;;;;59.88;36.33;;;6.90;99.90;;;;;;5050483;28;20264;-94
2021/10/20 05:29:10;;;;;;;55.70;34.37;;;6.90;99.90;;;;;;5053923;28;20225;-93
2021/10/20 05:31:36;;;;;;;58.25;36.10;;;6.90;99.90;;;;;;5050709;28;20277;-93
2021/10/20 05:34:08;;;;;;;59.80;36.70;;;6.90;99.90;;;;;;5053226;28;20229;-87
2021/10/20 05:36:35;;;;;;;57.10;36.97;;;6.90;99.90;;;;;;5053978;28;20411;-87
2021/10/20 05:39:02;;;;;;;60.70;37.85;;;6.80;99.90;;;;;;5046919;28;20349;-86
2021/10/20 05:41:27;;;;;;;58.80;36.47;;;6.80;99.90;;;;;;5061225;28;20186;-88
2021/10/20 05:43:56;;;;;;;50.07;34.50;;;6.80;99.90;;;;;;5047662;28;20433;-87
2021/10/20 05:46:22;;;;;;;56.58;35.47;;;6.90;99.90;;;;;;5044525;28;20202;-86
2021/10/20 05:48:47;;;;;;;60.88;36.20;;;7.00;99.90;;;;;;5047303;28;20190;-86
2021/10/20 05:51:13;;;;;;;56.60;34.93;;;7.00;99.90;;;;;;5045711;28;20288;-94
2021/10/20 05:53:41;;;;;;;55.50;36.03;;;7.00;99.90;;;;;;5046704;28;20188;-87
2021/10/20 05:56:08;;;;;;;55.40;36.33;;;7.00;99.90;;;;;;5044968;28;20197;-86
2021/10/20 05:58:35;;;;;;;58.80;34.42;;;7.00;99.90;;;;;;5050250;28;20721;-87
2021/10/20 06:01:01;;;;;;;51.17;32.97;;;7.00;99.90;;;;;;5049876;28;20194;-86
2021/10/20 06:03:27;;;;;;;60.20;34.50;;;6.90;99.90;;;;;;5063469;28;20182;-94
2021/10/20 06:05:53;;;;;;;55.30;35.57;;;7.00;99.90;;;;;;5050769;28;20296;-87
2021/10/20 06:08:19;;;;;;;58.38;35.10;;;7.00;99.90;;;;;;5042595;28;20201;-95
2021/10/20 06:10:46;;;;;;;51.00;34.50;;;7.00;99.90;;;;;;5056416;28;20661;-95
2021/10/20 06:13:12;;;;;;;51.30;33.88;;;7.10;99.90;;;;;;5056502;28;20452;-94
2021/10/20 06:15:41;;;;;;;55.95;34.60;;;7.10;99.90;;;;;;5052734;28;20198;-87
2021/10/20 06:18:08;;;;;;;51.85;33.88;;;7.20;99.90;;;;;;5050706;28;20214;-86
2021/10/20 06:20:36;;;;;;;57.83;36.35;;;7.20;99.90;;;;;;5046854;28;20202;-87
2021/10/20 06:23:03;;;;;;;58.72;33.85;;;7.20;99.90;;;;;;5053002;28;20194;-94
2021/10/20 06:25:29;;;;;;;57.40;36.22;;;7.30;99.90;;;;;;5053221;28;20206;-93
2021/10/20 06:27:55;;;;;;;56.10;34.13;;;7.30;99.90;;;;;;5068867;28;20290;-94
2021/10/20 06:30:22;;;;;;;52.27;32.07;;;7.40;99.90;;;;;;5051113;28;20447;-87
2021/10/20 06:32:48;;;;;;;57.42;35.45;;;7.40;99.90;;;;;;5055094;28;20197;-87
2021/10/20 06:35:14;;;;;;;54.00;34.88;;;7.40;99.90;;;;;;5071196;28;20257;-89
2021/10/20 06:37:45;;;;;;;56.20;34.73;;;7.40;99.90;;;;;;5075692;28;20249;-87
2021/10/20 06:40:11;;;;;;;61.17;36.72;;;7.50;99.90;;;;;;5053980;28;20247;-87
2021/10/20 06:42:37;;;;;;;63.63;35.95;;;7.50;99.90;;;;;;5049872;28;20557;-90
2021/10/20 06:45:03;;;;;;;57.27;36.40;;;7.60;99.90;;;;;;5052263;28;20197;-95
2021/10/20 06:47:29;;;;;;;58.30;35.92;;;7.70;99.90;;;;;;5051014;28;20189;-94
2021/10/20 06:49:57;;;;;;;55.03;35.55;;;7.80;99.90;;;;;;5049167;28;20279;-86
2021/10/20 06:52:23;;;;;;;54.50;34.85;;;7.90;99.90;;;;;;5053691;28;20194;-95
2021/10/20 06:54:49;;;;;;;57.03;35.95;;;8.00;99.90;;;;;;5052957;28;20241;-95
2021/10/20 06:57:14;;;;;;;58.63;35.40;;;8.10;99.90;;;;;;5060852;28;20273;-94
2021/10/20 06:59:42;;;;;;;51.92;34.70;;;8.20;99.90;;;;;;5058221;28;20204;-95
2021/10/20 07:02:09;;;;;;;52.50;33.90;;;8.40;99.90;;;;;;5052780;28;20181;-94
2021/10/20 07:04:34;;;;;;;56.40;36.23;;;8.50;99.90;;;;;;5051365;28;20675;-87
2021/10/20 07:07:01;;;;;;;53.70;35.03;;;8.60;99.90;;;;;;5048751;28;20435;-94
2021/10/20 07:09:27;;;;;;;52.40;35.05;;;8.80;99.90;;;;;;5052910;28;20446;-96
2021/10/20 07:11:53;;;;;;;56.90;37.25;;;8.90;99.90;;;;;;5054808;28;20207;-95
2021/10/20 07:14:21;;;;;;;52.50;35.97;;;9.10;99.90;;;;;;5057253;28;20244;-87
2021/10/20 07:16:47;;;;;;;68.97;44.55;;;9.20;99.90;;;;;;5055473;28;20185;-95
2021/10/20 07:19:13;;;;;;;80.70;55.28;;;9.40;99.90;;;;;;5043470;28;20189;-95
2021/10/20 07:21:39;;;;;;;71.77;55.80;;;9.50;99.90;;;;;;5048208;28;20700;-88
2021/10/20 07:24:05;;;;;;;81.53;60.17;;;9.70;99.90;;;;;;5050336;28;20178;-94
2021/10/20 07:26:31;;;;;;;92.10;62.20;;;9.80;99.90;;;;;;5048848;28;20170;-93
2021/10/20 07:28:58;;;;;;;65.55;46.75;;;10.00;99.90;;;;;;5066334;28;20190;-95
2021/10/20 07:31:29;;;;;;;69.70;49.25;;;10.20;99.90;;;;;;5050266;28;20186;-93
2021/10/20 07:33:59;;;;;;;63.05;46.80;;;10.50;99.90;;;;;;5051895;28;20559;-87
2021/10/20 07:36:26;;;;;;;62.28;44.85;;;10.70;99.90;;;;;;5051593;28;20170;-88
2021/10/20 07:38:53;;;;;;;71.15;51.88;;;11.10;99.90;;;;;;5052540;28;20213;-88
2021/10/20 07:41:19;;;;;;;107.20;73.10;;;11.50;99.90;;;;;;5051649;28;20202;-95
2021/10/20 07:43:46;;;;;;;89.03;59.97;;;12.00;99.90;;;;;;5053945;28;20196;-95
2021/10/20 07:46:13;;;;;;;92.00;61.55;;;12.70;99.90;;;;;;5048690;28;20756;-87
2021/10/20 07:48:39;;;;;;;83.43;57.17;;;13.50;99.90;;;;;;5051618;28;20190;-96
2021/10/20 07:51:05;;;;;;;75.33;53.17;;;14.40;99.90;;;;;;5059235;28;20503;-87
2021/10/20 07:53:32;;;;;;;64.63;44.73;;;15.20;99.90;;;;;;5054065;28;20481;-88
2021/10/20 07:56:01;;;;;;;57.10;40.30;;;16.00;99.90;;;;;;5048395;28;20470;-87
2021/10/20 07:58:28;;;;;;;48.13;37.67;;;16.60;99.90;;;;;;5051143;28;21071;-94
2021/10/20 08:00:54;;;;;;;57.77;38.10;;;17.30;99.90;;;;;;5049619;28;20430;-88
2021/10/20 08:03:20;;;;;;;58.30;38.53;;;18.10;99.90;;;;;;5050695;28;20424;-96
2021/10/20 08:05:46;;;;;;;45.80;34.10;;;18.80;99.90;;;;;;5051878;28;21141;-96
2021/10/20 08:08:11;;;;;;;48.00;33.90;;;19.40;99.90;;;;;;5054732;28;20500;-89
2021/10/20 08:10:40;;;;;;;36.50;28.30;;;19.90;99.90;;;;;;5051515;28;20678;-87
2021/10/20 08:13:07;;;;;;;34.20;26.20;;;20.40;99.90;;;;;;5049772;28;20244;-87
2021/10/20 08:15:34;;;;;;;35.37;27.77;;;20.90;99.90;;;;;;5050463;28;20532;-95
2021/10/20 08:18:06;;;;;;;31.07;25.80;;;21.50;99.90;;;;;;5061890;28;20470;-96
2021/10/20 08:20:37;;;;;;;32.40;26.43;;;22.00;99.90;;;;;;5048650;28;20538;-89
2021/10/20 08:23:05;;;;;;;32.40;24.53;;;22.50;99.90;;;;;;5052845;28;20445;-96
2021/10/20 08:25:34;;;;;;;32.83;25.50;;;23.00;99.90;;;;;;5050174;28;20579;-86
2021/10/20 08:28:00;;;;;;;34.23;27.37;;;23.40;99.50;;;;;;5046641;28;21739;-96
2021/10/20 08:30:26;;;;;;;30.77;25.40;;;23.80;97.90;;;;;;5048205;28;20438;-87
2021/10/20 08:32:55;;;;;;;32.73;26.47;;;24.20;96.60;;;;;;5048407;28;20430;-96
2021/10/20 08:35:21;;;;;;;30.80;24.90;;;24.40;95.50;;;;;;5046933;28;20442;-96
2021/10/20 08:38:01;;;;;;;45.43;32.53;;;24.40;95.20;;;;;;5050790;28;20552;-87
2021/10/20 08:40:29;;;;;;;39.87;28.97;;;24.00;95.00;;;;;;5052539;28;20970;-96
2021/10/20 08:42:56;;;;;;;32.77;27.20;;;23.30;95.10;;;;;;5053065;28;20473;-86
2021/10/20 08:45:23;;;;;;;34.10;25.87;;;22.70;95.00;;;;;;5053535;28;20880;-95
2021/10/20 08:47:50;;;;;;;31.30;26.80;;;22.20;95.80;;;;;;5061657;28;20830;-93
2021/10/20 08:50:25;;;;;;;33.77;25.97;;;21.90;96.40;;;;;;5063281;28;20434;-87
2021/10/20 08:52:52;;;;;;;33.27;28.47;;;21.60;96.50;;;;;;5054571;28;20433;-94
2021/10/20 08:55:20;;;;;;;35.40;27.77;;;21.20;96.80;;;;;;5039688;28;20462;-87
2021/10/20 08:57:48;;;;;;;33.33;26.87;;;20.80;98.00;;;;;;5049363;28;20846;-86
2021/10/20 09:00:17;;;;;;;32.77;28.13;;;20.20;98.40;;;;;;5049186;28;20450;-95
2021/10/20 09:02:47;;;;;;;38.23;29.37;;;19.90;99.00;;;;;;5055879;28;20530;-95
2021/10/20 09:05:16;;;;;;;33.90;27.60;;;19.70;99.40;;;;;;5051887;28;20971;-94
2021/10/20 09:07:44;;;;;;;30.83;25.43;;;19.30;99.90;;;;;;5051375;28;20443;-95
2021/10/20 09:10:11;;;;;;;32.33;26.20;;;19.00;99.90;;;;;;5048393;28;20451;-94
2021/10/20 09:12:43;;;;;;;31.43;24.03;;;18.60;99.90;;;;;;5049907;28;20445;-87
2021/10/20 09:15:12;;;;;;;32.43;26.87;;;18.30;99.90;;;;;;5062677;28;20466;-94
2021/10/20 09:17:51;;;;;;;35.00;26.70;;;18.00;99.90;;;;;;5046093;28;20541;-86
2021/10/20 09:20:58;;;;;;;38.47;28.57;;;17.80;99.90;;;;;;5047799;28;20810;-86
2021/10/20 09:23:30;;;;;;;31.90;25.97;;;17.50;99.90;;;;;;5025443;28;20462;-87
2021/10/20 09:25:58;;;;;;;32.53;25.83;;;17.40;99.90;;;;;;5049182;28;20845;-86
2021/10/20 09:28:34;;;;;;;32.80;24.27;;;17.20;99.90;;;;;;5050686;28;20435;-95
2021/10/20 09:31:06;;;;;;;33.20;25.97;;;17.10;99.90;;;;;;5052835;28;20454;-87
2021/10/20 09:33:37;;;;;;;31.47;25.53;;;17.10;99.90;;;;;;5048048;28;20462;-87
2021/10/20 09:36:05;;;;;;;32.43;24.90;;;17.10;99.90;;;;;;5051958;28;20512;-86
2021/10/20 09:38:41;;;;;;;32.87;24.17;;;17.10;99.90;;;;;;5061160;28;20991;-86
2021/10/20 09:41:09;;;;;;;30.57;23.20;;;17.10;99.90;;;;;;5059187;28;20462;-86
2021/10/20 09:43:55;;;;;;;28.93;25.33;;;17.10;99.90;;;;;;5047407;28;21010;-86
2021/10/20 09:46:30;;;;;;;25.60;20.97;;;17.00;99.90;;;;;;5035759;28;20511;-96
2021/10/20 09:48:59;;;;;;;30.37;24.40;;;17.00;99.90;;;;;;5044451;28;20525;-96
2021/10/20 09:51:24;;;;;;;29.53;23.10;;;17.00;99.90;;;;;;5049273;28;20426;-87
2021/10/20 09:53:51;;;;;;;29.90;24.00;;;17.00;99.90;;;;;;5044542;28;20439;-88
2021/10/20 09:56:34;;;;;;;27.50;23.13;;;17.00;99.90;;;;;;5050688;28;20205;-96
2021/10/20 09:59:01;;;;;;;30.63;23.70;;;17.10;99.90;;;;;;5051018;28;20489;-87
2021/10/20 10:01:28;;;;;;;30.77;25.17;;;17.10;99.90;;;;;;5051408;28;20856;-87
2021/10/20 10:04:02;;;;;;;36.57;23.77;;;17.20;99.90;;;;;;5051767;28;20533;-87
2021/10/20 10:06:38;;;;;;;31.70;22.97;;;17.20;99.90;;;;;;5054472;28;20423;-87
2021/10/20 10:09:06;;;;;;;31.37;24.47;;;17.20;99.90;;;;;;5059453;28;20435;-89
2021/10/20 10:11:34;;;;;;;28.93;23.47;;;17.30;99.90;;;;;;5068189;28;20433;-94
2021/10/20 10:14:02;;;;;;;31.57;24.67;;;17.30;99.90;;;;;;5059224;28;20489;-87
2021/10/20 10:16:31;;;;;;;31.60;23.20;;;17.40;99.90;;;;;;5056317;28;20437;-95
2021/10/20 10:18:58;;;;;;;30.97;24.27;;;17.50;99.90;;;;;;5052324;28;20487;-95
2021/10/20 10:21:37;;;;;;;30.20;24.17;;;17.60;99.90;;;;;;5051077;28;20425;-94
2021/10/20 10:24:11;;;;;;;28.53;21.80;;;17.60;99.90;;;;;;5053543;28;21034;-87
2021/10/20 10:27:05;;;;;;;26.70;22.23;;;17.60;99.90;;;;;;5053777;28;20544;-96
2021/10/20 10:29:45;;;;;;;34.20;23.87;;;17.70;99.90;;;;;;5053362;28;20443;-87
2021/10/20 10:32:11;;;;;;;29.33;23.97;;;17.70;99.90;;;;;;5053363;28;20423;-95
2021/10/20 10:34:44;;;;;;;28.70;22.93;;;17.80;99.90;;;;;;5052501;28;20459;-85
2021/10/20 10:37:47;;;;;;;25.93;20.77;;;17.80;99.90;;;;;;5052478;28;20470;-87
2021/10/20 10:40:31;;;;;;;27.53;21.67;;;17.80;99.90;;;;;;5057319;28;20916;-94
2021/10/20 10:43:04;;;;;;;26.20;20.57;;;17.90;99.90;;;;;;5045398;28;20544;-94
2021/10/20 10:45:30;;;;;;;27.17;21.57;;;18.00;99.90;;;;;;5064300;28;20451;-95
2021/10/20 10:48:09;;;;;;;25.30;22.00;;;18.00;99.90;;;;;;5056869;28;20438;-96
2021/10/20 10:50:49;;;;;;;25.73;21.23;;;18.10;99.90;;;;;;5049304;28;20695;-87
2021/10/20 10:53:34;;;;;;;24.57;19.77;;;18.20;99.90;;;;;;5046565;28;20451;-94
2021/10/20 10:56:03;;;;;;;27.73;21.50;;;18.20;99.90;;;;;;5047901;28;20470;-87
2021/10/20 10:58:29;;;;;;;27.63;19.83;;;18.30;99.90;;;;;;5049552;28;20478;-96
2021/10/20 11:00:55;;;;;;;25.20;20.83;;;18.30;99.90;;;;;;5053827;28;20583;-94
2021/10/20 11:03:27;;;;;;;23.90;19.20;;;18.40;99.90;;;;;;5050816;28;20208;-87
2021/10/20 11:06:01;;;;;;;26.77;20.13;;;18.40;99.90;;;;;;5047728;28;20990;-95
2021/10/20 11:08:28;;;;;;;26.13;20.63;;;18.40;99.90;;;;;;5061134;28;20440;-86
2021/10/20 11:10:55;;;;;;;27.23;19.83;;;18.40;99.90;;;;;;5065484;28;20439;-95
2021/10/20 11:13:21;;;;;;;23.70;18.40;;;18.30;99.90;;;;;;5052696;28;20512;-86
2021/10/20 11:15:48;;;;;;;23.43;18.97;;;18.20;99.90;;;;;;5076059;28;20516;-95
2021/10/20 11:18:15;;;;;;;24.80;20.70;;;18.20;99.90;;;;;;5059331;28;20611;-87
2021/10/20 11:20:43;;;;;;;25.50;21.17;;;18.10;99.90;;;;;;5048395;28;20454;-95
2021/10/20 11:23:17;;;;;;;26.33;20.63;;;18.10;99.90;;;;;;5063338;28;21084;-87
2021/10/20 11:25:46;;;;;;;23.63;20.47;;;18.10;99.90;;;;;;5043456;28;20466;-87
2021/10/20 11:28:13;;;;;;;22.30;18.63;;;18.00;99.90;;;;;;5049747;28;20440;-87
2021/10/20 11:30:41;;;;;;;19.43;16.57;;;18.00;99.90;;;;;;5049713;28;20509;-86
2021/10/20 11:33:14;;;;;;;19.17;16.43;;;18.00;99.90;;;;;;5030811;28;20459;-87
2021/10/20 11:35:40;;;;;;;21.90;16.60;;;18.00;99.90;;;;;;5041470;28;20527;-94
2021/10/20 11:38:17;;;;;;;21.43;17.27;;;18.00;99.90;;;;;;5043975;28;20513;-87
2021/10/20 11:40:50;;;;;;;22.20;17.90;;;18.00;99.90;;;;;;5042022;28;20459;-87
2021/10/20 11:43:35;;;;;;;22.00;18.23;;;18.10;99.90;;;;;;5042922;28;20435;-95
2021/10/20 11:46:02;;;;;;;21.13;16.97;;;18.20;99.90;;;;;;5046729;28;20451;-95
2021/10/20 11:48:30;;;;;;;20.33;15.60;;;18.30;99.90;;;;;;5046255;28;20794;-87
2021/10/20 11:50:58;;;;;;;18.20;15.90;;;18.40;99.90;;;;;;5047529;28;20870;-86
2021/10/20 11:53:28;;;;;;;19.43;15.00;;;18.40;99.90;;;;;;5043542;28;20545;-94
2021/10/20 11:55:58;;;;;;;18.20;15.37;;;18.50;99.90;;;;;;5051573;28;20463;-90
2021/10/20 11:58:28;;;;;;;18.53;16.50;;;18.50;99.90;;;;;;5050954;28;20962;-94
2021/10/20 12:01:00;;;;;;;17.90;16.00;;;18.60;99.90;;;;;;5051002;28;20806;-95
2021/10/20 12:03:40;;;;;;;19.60;15.73;;;18.70;99.90;;;;;;5054122;28;20438;-86
2021/10/20 12:06:09;;;;;;;16.07;14.37;;;18.80;99.90;;;;;;5054900;28;20463;-94
2021/10/20 12:08:43;;;;;;;21.83;15.57;;;18.80;99.90;;;;;;5047039;28;20438;-93
2021/10/20 12:11:10;;;;;;;19.00;15.33;;;18.80;99.90;;;;;;5051786;28;20863;-95
2021/10/20 12:13:38;;;;;;;16.63;12.90;;;18.90;99.90;;;;;;5046635;28;20494;-86
2021/10/20 12:16:08;;;;;;;14.80;13.00;;;18.90;99.90;;;;;;5049085;28;20470;-86
2021/10/20 12:18:36;;;;;;;19.73;14.67;;;18.80;99.90;;;;;;5046984;28;20480;-95
2021/10/20 12:21:03;;;;;;;16.13;14.43;;;18.80;99.90;;;;;;5050579;28;20720;-94
2021/10/20 12:23:33;;;;;;;17.00;14.10;;;18.80;99.90;;;;;;5053562;28;20816;-87
2021/10/20 12:26:01;;;;;;;23.63;17.97;;;18.70;99.90;;;;;;5081602;28;20453;-94
2021/10/20 12:28:27;;;;;;;17.73;15.27;;;18.70;99.90;;;;;;5066624;28;20474;-95
2021/10/20 12:30:54;;;;;;;16.60;13.37;;;18.60;99.90;;;;;;5067295;28;20486;-94
2021/10/20 12:33:23;;;;;;;16.83;12.80;;;18.70;99.90;;;;;;5066812;28;20431;-87
2021/10/20 12:35:50;;;;;;;15.93;12.93;;;18.70;99.90;;;;;;5051095;28;20468;-94
2021/10/20 12:38:23;;;;;;;17.50;13.30;;;18.80;99.90;;;;;;5052662;28;20525;-86